sensor_id;sensor_type;location;lat;lon;timestamp;pressure;altitude;pressure_sealevel;temperature;humidity
40992;BME280;29633;49.168;9.848;2023-08-01T00:00:31;95911.47;;;21.66;66.37
40992;BME280;29633;49.168;9.848;2023-08-01T00:02:57;95901.94;;;21.65;66.25
40992;BME280;29633;49.168;9.848;2023-08-01T00:05:23;95901.94;;;21.65;66.77
40992;BME280;29633;49.168;9.848;2023-08-01T00:07:49;95901.13;;;21.65;66.51
40992;BME280;29633;49.168;9.848;2023-08-01T00:10:14;95885.31;;;21.65;66.52
40992;BME280;29633;49.168;9.848;2023-08-01T00:12:42;95885.31;;;21.65;66.70
40992;BME280;29633;49.168;9.848;2023-08-01T00:15:08;95882.09;;;21.63;66.37
40992;BME280;29633;49.168;9.848;2023-08-01T00:17:34;95870.50;;;21.64;66.53
40992;BME280;29633;49.168;9.848;2023-08-01T00:20:01;95872.56;;;21.62;66.69
40992;BME280;29633;49.168;9.848;2023-08-01T00:22:27;95865.06;;;21.58;66.70
40992;BME280;29633;49.168;9.848;2023-08-01T00:24:53;95868.72;;;21.57;66.67
40992;BME280;29633;49.168;9.848;2023-08-01T00:27:18;95863.06;;;21.54;66.74
40992;BME280;29633;49.168;9.848;2023-08-01T00:29:44;95854.56;;;21.52;66.93
40992;BME280;29633;49.168;9.848;2023-08-01T00:32:10;95859.84;;;21.52;67.02
40992;BME280;29633;49.168;9.848;2023-08-01T00:34:36;95861.66;;;21.51;66.94
40992;BME280;29633;49.168;9.848;2023-08-01T00:37:02;95852.56;;;21.47;66.99
40992;BME280;29633;49.168;9.848;2023-08-01T00:39:28;95853.00;;;21.44;67.31
40992;BME280;29633;49.168;9.848;2023-08-01T00:41:53;95851.38;;;21.43;67.10
40992;BME280;29633;49.168;9.848;2023-08-01T00:44:19;95852.38;;;21.42;67.36
40992;BME280;29633;49.168;9.848;2023-08-01T00:46:45;95848.16;;;21.41;67.37
40992;BME280;29633;49.168;9.848;2023-08-01T00:49:13;95846.72;;;21.39;67.36
40992;BME280;29633;49.168;9.848;2023-08-01T00:51:39;95841.69;;;21.37;67.50
40992;BME280;29633;49.168;9.848;2023-08-01T00:54:05;95834.84;;;21.30;67.59
40992;BME280;29633;49.168;9.848;2023-08-01T00:56:31;95833.84;;;21.24;67.93
40992;BME280;29633;49.168;9.848;2023-08-01T00:58:57;95824.72;;;21.20;67.67
40992;BME280;29633;49.168;9.848;2023-08-01T01:01:22;95824.97;;;21.19;67.61
40992;BME280;29633;49.168;9.848;2023-08-01T01:03:48;95802.25;;;21.18;67.96
40992;BME280;29633;49.168;9.848;2023-08-01T01:08:49;95787.06;;;21.13;67.87
40992;BME280;29633;49.168;9.848;2023-08-01T01:11:15;95785.47;;;21.12;68.09
40992;BME280;29633;49.168;9.848;2023-08-01T01:13:40;95784.66;;;21.12;68.03
40992;BME280;29633;49.168;9.848;2023-08-01T01:16:06;95785.47;;;21.12;67.87
40992;BME280;29633;49.168;9.848;2023-08-01T01:18:32;95766.78;;;21.14;68.07
40992;BME280;29633;49.168;9.848;2023-08-01T01:20:57;95755.63;;;21.18;68.25
40992;BME280;29633;49.168;9.848;2023-08-01T01:23:23;95746.03;;;21.24;67.88
40992;BME280;29633;49.168;9.848;2023-08-01T01:25:50;95742.19;;;21.26;68.10
40992;BME280;29633;49.168;9.848;2023-08-01T01:28:16;95740.34;;;21.27;68.06
40992;BME280;29633;49.168;9.848;2023-08-01T01:30:43;95732.44;;;21.27;68.11
40992;BME280;29633;49.168;9.848;2023-08-01T01:33:09;95738.50;;;21.27;67.84
40992;BME280;29633;49.168;9.848;2023-08-01T01:35:35;95724.16;;;21.23;67.90
40992;BME280;29633;49.168;9.848;2023-08-01T01:38:02;95715.66;;;21.21;68.12
40992;BME280;29633;49.168;9.848;2023-08-01T01:40:30;95707.16;;;21.19;67.94
40992;BME280;29633;49.168;9.848;2023-08-01T01:42:56;95703.91;;;21.17;67.98
40992;BME280;29633;49.168;9.848;2023-08-01T01:45:22;95700.84;;;21.20;68.53
40992;BME280;29633;49.168;9.848;2023-08-01T01:47:47;95698.44;;;21.19;68.42
40992;BME280;29633;49.168;9.848;2023-08-01T01:50:13;95691.94;;;21.21;68.41
40992;BME280;29633;49.168;9.848;2023-08-01T01:52:38;95695.38;;;21.22;68.22
40992;BME280;29633;49.168;9.848;2023-08-01T01:55:04;95693.75;;;21.21;68.11
40992;BME280;29633;49.168;9.848;2023-08-01T01:57:30;95695.56;;;21.20;68.26
40992;BME280;29633;49.168;9.848;2023-08-01T01:59:56;95699.25;;;21.19;68.49
40992;BME280;29633;49.168;9.848;2023-08-01T02:02:21;95697.44;;;21.20;68.49
40992;BME280;29633;49.168;9.848;2023-08-01T02:04:48;95710.81;;;21.18;68.55
40992;BME280;29633;49.168;9.848;2023-08-01T02:07:13;95701.66;;;21.21;68.59
40992;BME280;29633;49.168;9.848;2023-08-01T02:09:40;95697.00;;;21.23;68.31
40992;BME280;29633;49.168;9.848;2023-08-01T02:12:05;95697.63;;;21.18;68.58
40992;BME280;29633;49.168;9.848;2023-08-01T02:14:33;95690.34;;;21.14;68.51
40992;BME280;29633;49.168;9.848;2023-08-01T02:16:59;95691.78;;;21.09;68.84
40992;BME280;29633;49.168;9.848;2023-08-01T02:19:24;95685.31;;;21.05;68.55
40992;BME280;29633;49.168;9.848;2023-08-01T02:21:50;95681.28;;;21.03;68.99
40992;BME280;29633;49.168;9.848;2023-08-01T02:24:16;95681.09;;;21.04;68.96
40992;BME280;29633;49.168;9.848;2023-08-01T02:26:41;95664.47;;;21.04;69.07
40992;BME280;29633;49.168;9.848;2023-08-01T02:29:07;95669.13;;;21.02;68.90
40992;BME280;29633;49.168;9.848;2023-08-01T02:31:33;95661.03;;;21.03;68.91
40992;BME280;29633;49.168;9.848;2023-08-01T02:33:58;95663.66;;;21.03;68.88
40992;BME280;29633;49.168;9.848;2023-08-01T02:36:24;95654.38;;;21.01;68.98
40992;BME280;29633;49.168;9.848;2023-08-01T02:38:49;95643.22;;;20.99;68.84
40992;BME280;29633;49.168;9.848;2023-08-01T02:41:15;95652.16;;;20.98;68.96
40992;BME280;29633;49.168;9.848;2023-08-01T02:43:41;95659.47;;;20.96;69.12
40992;BME280;29633;49.168;9.848;2023-08-01T02:46:06;95659.47;;;20.96;69.27
40992;BME280;29633;49.168;9.848;2023-08-01T02:48:32;95650.53;;;20.97;69.31
40992;BME280;29633;49.168;9.848;2023-08-01T02:50:58;95654.56;;;20.99;69.16
40992;BME280;29633;49.168;9.848;2023-08-01T02:53:24;95649.09;;;21.01;69.33
40992;BME280;29633;49.168;9.848;2023-08-01T02:55:49;95657.00;;;21.01;68.95
40992;BME280;29633;49.168;9.848;2023-08-01T02:58:15;95651.72;;;21.01;69.27
40992;BME280;29633;49.168;9.848;2023-08-01T03:00:41;95638.56;;;21.01;69.51
40992;BME280;29633;49.168;9.848;2023-08-01T03:03:06;95643.22;;;20.99;69.25
40992;BME280;29633;49.168;9.848;2023-08-01T03:05:35;95643.22;;;20.99;69.50
40992;BME280;29633;49.168;9.848;2023-08-01T03:08:01;95638.56;;;21.01;69.02
40992;BME280;29633;49.168;9.848;2023-08-01T03:10:26;95633.47;;;20.99;69.60
40992;BME280;29633;49.168;9.848;2023-08-01T03:12:52;95642.41;;;20.98;69.63
40992;BME280;29633;49.168;9.848;2023-08-01T03:15:18;95628.66;;;20.96;69.31
40992;BME280;29633;49.168;9.848;2023-08-01T03:17:43;95640.44;;;20.94;69.44
40992;BME280;29633;49.168;9.848;2023-08-01T03:20:09;95638.00;;;20.92;69.67
40992;BME280;29633;49.168;9.848;2023-08-01T03:22:40;95636.19;;;20.93;69.73
40992;BME280;29633;49.168;9.848;2023-08-01T03:25:06;95635.56;;;20.91;69.77
40992;BME280;29633;49.168;9.848;2023-08-01T03:27:35;95636.38;;;20.91;69.66
40992;BME280;29633;49.168;9.848;2023-08-01T03:30:01;95627.66;;;20.91;69.88
40992;BME280;29633;49.168;9.848;2023-08-01T03:32:27;95620.56;;;20.91;69.97
40992;BME280;29633;49.168;9.848;2023-08-01T03:34:53;95609.84;;;20.93;70.02
40992;BME280;29633;49.168;9.848;2023-08-01T03:37:19;95607.19;;;20.93;69.68
40992;BME280;29633;49.168;9.848;2023-08-01T03:39:44;95601.50;;;20.96;69.81
40992;BME280;29633;49.168;9.848;2023-08-01T03:42:10;95592.78;;;20.95;69.87
40992;BME280;29633;49.168;9.848;2023-08-01T03:44:36;95594.78;;;21.00;69.96
40992;BME280;29633;49.168;9.848;2023-08-01T03:47:02;95581.59;;;21.00;69.77
40992;BME280;29633;49.168;9.848;2023-08-01T03:49:27;95590.06;;;21.02;69.96
40992;BME280;29633;49.168;9.848;2023-08-01T03:51:53;95592.72;;;21.02;70.00
40992;BME280;29633;49.168;9.848;2023-08-01T03:54:19;95588.06;;;21.04;69.85
40992;BME280;29633;49.168;9.848;2023-08-01T03:56:44;95591.06;;;21.07;69.91
40992;BME280;29633;49.168;9.848;2023-08-01T03:59:15;95596.72;;;21.11;69.87
40992;BME280;29633;49.168;9.848;2023-08-01T04:01:41;95583.56;;;21.11;69.74
40992;BME280;29633;49.168;9.848;2023-08-01T04:04:08;95574.63;;;21.12;70.04
40992;BME280;29633;49.168;9.848;2023-08-01T04:06:34;95571.75;;;21.14;70.05
40992;BME280;29633;49.168;9.848;2023-08-01T04:08:59;95573.38;;;21.15;69.94
40992;BME280;29633;49.168;9.848;2023-08-01T04:11:26;95581.28;;;21.15;69.77
40992;BME280;29633;49.168;9.848;2023-08-01T04:13:52;95575.00;;;21.16;69.78
40992;BME280;29633;49.168;9.848;2023-08-01T04:16:17;95579.84;;;21.19;69.67
40992;BME280;29633;49.168;9.848;2023-08-01T04:18:43;95584.50;;;21.17;69.83
40992;BME280;29633;49.168;9.848;2023-08-01T04:21:09;95591.19;;;21.19;69.98
40992;BME280;29633;49.168;9.848;2023-08-01T04:23:34;95605.19;;;21.20;69.86
40992;BME280;29633;49.168;9.848;2023-08-01T04:26:00;95596.47;;;21.19;69.96
40992;BME280;29633;49.168;9.848;2023-08-01T04:28:25;95597.28;;;21.20;69.79
40992;BME280;29633;49.168;9.848;2023-08-01T04:30:52;95587.13;;;21.17;70.26
40992;BME280;29633;49.168;9.848;2023-08-01T04:33:17;95581.09;;;21.16;69.90
40992;BME280;29633;49.168;9.848;2023-08-01T04:35:43;95576.59;;;21.17;70.08
40992;BME280;29633;49.168;9.848;2023-08-01T04:38:09;95582.47;;;21.19;70.28
40992;BME280;29633;49.168;9.848;2023-08-01T04:40:38;95583.47;;;21.18;70.10
40992;BME280;29633;49.168;9.848;2023-08-01T04:43:04;95580.28;;;21.16;70.28
40992;BME280;29633;49.168;9.848;2023-08-01T04:45:29;95582.69;;;21.17;70.43
40992;BME280;29633;49.168;9.848;2023-08-01T04:47:55;95586.94;;;21.18;70.46
40992;BME280;29633;49.168;9.848;2023-08-01T04:50:20;95582.69;;;21.17;70.25
40992;BME280;29633;49.168;9.848;2023-08-01T04:52:46;95572.75;;;21.19;70.48
40992;BME280;29633;49.168;9.848;2023-08-01T04:55:12;95578.38;;;21.23;70.63
40992;BME280;29633;49.168;9.848;2023-08-01T04:57:37;95580.78;;;21.24;70.41
40992;BME280;29633;49.168;9.848;2023-08-01T05:00:04;95578.16;;;21.24;70.56
40992;BME280;29633;49.168;9.848;2023-08-01T05:02:29;95568.41;;;21.25;70.76
40992;BME280;29633;49.168;9.848;2023-08-01T05:04:55;95576.13;;;21.26;70.69
40992;BME280;29633;49.168;9.848;2023-08-01T05:07:21;95580.56;;;21.26;70.66
40992;BME280;29633;49.168;9.848;2023-08-01T05:09:46;95572.44;;;21.27;70.72
40992;BME280;29633;49.168;9.848;2023-08-01T05:12:12;95582.75;;;21.29;70.81
40992;BME280;29633;49.168;9.848;2023-08-01T05:14:38;95588.84;;;21.29;70.98
40992;BME280;29633;49.168;9.848;2023-08-01T05:17:04;95582.13;;;21.33;70.90
40992;BME280;29633;49.168;9.848;2023-08-01T05:19:29;95572.75;;;21.37;70.79
40992;BME280;29633;49.168;9.848;2023-08-01T05:21:55;95570.25;;;21.42;70.81
40992;BME280;29633;49.168;9.848;2023-08-01T05:24:21;95566.75;;;21.48;70.79
40992;BME280;29633;49.168;9.848;2023-08-01T05:26:47;95559.97;;;21.52;70.58
40992;BME280;29633;49.168;9.848;2023-08-01T05:29:13;95558.53;;;21.56;70.54
40992;BME280;29633;49.168;9.848;2023-08-01T05:31:38;95560.13;;;21.57;70.77
40992;BME280;29633;49.168;9.848;2023-08-01T05:34:04;95554.41;;;21.60;70.77
40992;BME280;29633;49.168;9.848;2023-08-01T05:36:29;95545.50;;;21.62;70.44
40992;BME280;29633;49.168;9.848;2023-08-01T05:38:56;95547.09;;;21.63;70.45
40992;BME280;29633;49.168;9.848;2023-08-01T05:41:22;95546.31;;;21.62;70.37
40992;BME280;29633;49.168;9.848;2023-08-01T05:43:49;95546.50;;;21.60;70.54
40992;BME280;29633;49.168;9.848;2023-08-01T05:46:15;95544.09;;;21.59;70.61
40992;BME280;29633;49.168;9.848;2023-08-01T05:48:40;95555.69;;;21.58;70.54
40992;BME280;29633;49.168;9.848;2023-08-01T05:51:06;95561.16;;;21.56;70.71
40992;BME280;29633;49.168;9.848;2023-08-01T05:53:32;95557.28;;;21.59;70.65
40992;BME280;29633;49.168;9.848;2023-08-01T05:55:57;95549.38;;;21.59;70.76
40992;BME280;29633;49.168;9.848;2023-08-01T05:58:23;95550.19;;;21.59;70.66
40992;BME280;29633;49.168;9.848;2023-08-01T06:00:49;95554.66;;;21.59;70.58
40992;BME280;29633;49.168;9.848;2023-08-01T06:03:15;95544.91;;;21.59;70.71
40992;BME280;29633;49.168;9.848;2023-08-01T06:05:41;95556.03;;;21.62;70.33
40992;BME280;29633;49.168;9.848;2023-08-01T06:08:07;95558.69;;;21.62;70.32
40992;BME280;29633;49.168;9.848;2023-08-01T06:10:36;95559.69;;;21.60;70.57
40992;BME280;29633;49.168;9.848;2023-08-01T06:13:01;95569.66;;;21.58;70.78
40992;BME280;29633;49.168;9.848;2023-08-01T06:15:27;95568.25;;;21.56;70.53
40992;BME280;29633;49.168;9.848;2023-08-01T06:17:53;95570.97;;;21.49;70.72
40992;BME280;29633;49.168;9.848;2023-08-01T06:20:19;95574.06;;;21.46;70.78
40992;BME280;29633;49.168;9.848;2023-08-01T06:22:45;95561.13;;;21.45;70.68
40992;BME280;29633;49.168;9.848;2023-08-01T06:25:10;95553.97;;;21.45;70.78
40992;BME280;29633;49.168;9.848;2023-08-01T06:27:37;95550.31;;;21.46;70.89
40992;BME280;29633;49.168;9.848;2023-08-01T06:30:03;95547.25;;;21.49;70.99
40992;BME280;29633;49.168;9.848;2023-08-01T06:32:28;95534.06;;;21.49;70.88
40992;BME280;29633;49.168;9.848;2023-08-01T06:34:54;95531.78;;;21.53;70.96
40992;BME280;29633;49.168;9.848;2023-08-01T06:37:20;95550.41;;;21.58;70.68
40992;BME280;29633;49.168;9.848;2023-08-01T06:39:45;95569.22;;;21.62;70.82
40992;BME280;29633;49.168;9.848;2023-08-01T06:42:11;95577.13;;;21.62;70.67
40992;BME280;29633;49.168;9.848;2023-08-01T06:44:37;95561.31;;;21.62;70.67
40992;BME280;29633;49.168;9.848;2023-08-01T06:47:02;95565.78;;;21.61;70.80
40992;BME280;29633;49.168;9.848;2023-08-01T06:49:28;95589.31;;;21.63;70.93
40992;BME280;29633;49.168;9.848;2023-08-01T06:51:54;95584.69;;;21.58;70.94
40992;BME280;29633;49.168;9.848;2023-08-01T06:54:19;95593.63;;;21.57;71.10
40992;BME280;29633;49.168;9.848;2023-08-01T06:56:45;95593.50;;;21.52;70.86
40992;BME280;29633;49.168;9.848;2023-08-01T06:59:14;95583.59;;;21.47;71.09
40992;BME280;29633;49.168;9.848;2023-08-01T07:01:41;95579.56;;;21.45;71.08
40992;BME280;29633;49.168;9.848;2023-08-01T07:04:13;95583.44;;;21.42;71.32
40992;BME280;29633;49.168;9.848;2023-08-01T07:06:39;95575.97;;;21.39;71.29
40992;BME280;29633;49.168;9.848;2023-08-01T07:09:06;95581.88;;;21.35;71.67
40992;BME280;29633;49.168;9.848;2023-08-01T07:11:32;95566.75;;;21.30;71.38
40992;BME280;29633;49.168;9.848;2023-08-01T07:13:58;95564.31;;;21.29;71.81
40992;BME280;29633;49.168;9.848;2023-08-01T07:16:23;95559.25;;;21.27;71.74
40992;BME280;29633;49.168;9.848;2023-08-01T07:18:49;95556.63;;;21.27;71.42
40992;BME280;29633;49.168;9.848;2023-08-01T07:21:16;95557.66;;;21.26;71.74
40992;BME280;29633;49.168;9.848;2023-08-01T07:23:42;95550.97;;;21.24;71.58
40992;BME280;29633;49.168;9.848;2023-08-01T07:26:08;95559.13;;;21.22;71.57
40992;BME280;29633;49.168;9.848;2023-08-01T07:28:34;95556.69;;;21.21;71.62
40992;BME280;29633;49.168;9.848;2023-08-01T07:31:00;95558.50;;;21.20;71.76
40992;BME280;29633;49.168;9.848;2023-08-01T07:33:27;95567.31;;;21.14;71.41
40992;BME280;29633;49.168;9.848;2023-08-01T07:35:52;95564.28;;;21.10;71.88
40992;BME280;29633;49.168;9.848;2023-08-01T07:38:18;95570.63;;;21.03;71.80
40992;BME280;29633;49.168;9.848;2023-08-01T07:40:44;95584.50;;;20.92;71.90
40992;BME280;29633;49.168;9.848;2023-08-01T07:43:10;95592.66;;;20.84;72.27
40992;BME280;29633;49.168;9.848;2023-08-01T07:45:36;95601.66;;;20.76;72.09
40992;BME280;29633;49.168;9.848;2023-08-01T07:48:02;95580.22;;;20.73;72.20
40992;BME280;29633;49.168;9.848;2023-08-01T07:50:28;95572.53;;;20.71;72.15
40992;BME280;29633;49.168;9.848;2023-08-01T07:52:53;95570.09;;;20.70;72.10
40992;BME280;29633;49.168;9.848;2023-08-01T07:55:19;95579.03;;;20.69;72.12
40992;BME280;29633;49.168;9.848;2023-08-01T07:57:46;95573.97;;;20.67;72.33
40992;BME280;29633;49.168;9.848;2023-08-01T08:00:12;95564.69;;;20.65;72.15
40992;BME280;29633;49.168;9.848;2023-08-01T08:02:38;95562.25;;;20.63;72.08
40992;BME280;29633;49.168;9.848;2023-08-01T08:05:04;95562.47;;;20.61;72.19
40992;BME280;29633;49.168;9.848;2023-08-01T08:07:30;95574.22;;;20.59;72.49
40992;BME280;29633;49.168;9.848;2023-08-01T08:09:56;95557.03;;;20.56;72.39
40992;BME280;29633;49.168;9.848;2023-08-01T08:12:22;95548.19;;;20.51;72.26
40992;BME280;29633;49.168;9.848;2023-08-01T08:14:48;95552.47;;;20.45;72.24
40992;BME280;29633;49.168;9.848;2023-08-01T08:17:14;95557.16;;;20.43;72.66
40992;BME280;29633;49.168;9.848;2023-08-01T08:19:40;95563.44;;;20.42;72.68
40992;BME280;29633;49.168;9.848;2023-08-01T08:22:06;95548.88;;;20.40;72.68
40992;BME280;29633;49.168;9.848;2023-08-01T08:24:32;95563.25;;;20.37;72.82
40992;BME280;29633;49.168;9.848;2023-08-01T08:26:58;95557.19;;;20.37;72.79
40992;BME280;29633;49.168;9.848;2023-08-01T08:29:24;95557.97;;;20.37;72.88
40992;BME280;29633;49.168;9.848;2023-08-01T08:31:49;95555.34;;;20.37;72.74
40992;BME280;29633;49.168;9.848;2023-08-01T08:34:15;95542.56;;;20.41;72.75
40992;BME280;29633;49.168;9.848;2023-08-01T08:36:41;95549.25;;;20.43;72.96
40992;BME280;29633;49.168;9.848;2023-08-01T08:39:07;95551.66;;;20.45;72.69
40992;BME280;29633;49.168;9.848;2023-08-01T08:41:37;95550.81;;;20.51;72.70
40992;BME280;29633;49.168;9.848;2023-08-01T08:44:04;95559.88;;;20.55;72.69
40992;BME280;29633;49.168;9.848;2023-08-01T08:46:32;95566.13;;;20.60;72.73
40992;BME280;29633;49.168;9.848;2023-08-01T08:48:59;95554.72;;;20.67;72.63
40992;BME280;29633;49.168;9.848;2023-08-01T08:51:28;95557.34;;;20.67;72.74
40992;BME280;29633;49.168;9.848;2023-08-01T08:53:56;95562.88;;;20.65;72.66
40992;BME280;29633;49.168;9.848;2023-08-01T08:56:22;95552.31;;;20.65;72.97
40992;BME280;29633;49.168;9.848;2023-08-01T08:58:48;95566.69;;;20.69;72.91
40992;BME280;29633;49.168;9.848;2023-08-01T09:01:14;95563.25;;;20.69;72.87
40992;BME280;29633;49.168;9.848;2023-08-01T09:03:41;95565.63;;;20.70;73.02
40992;BME280;29633;49.168;9.848;2023-08-01T09:06:17;95556.72;;;20.71;72.80
40992;BME280;29633;49.168;9.848;2023-08-01T09:08:49;95551.88;;;20.68;73.01
40992;BME280;29633;49.168;9.848;2023-08-01T09:11:16;95554.28;;;20.70;72.89
40992;BME280;29633;49.168;9.848;2023-08-01T09:13:42;95558.78;;;20.69;73.19
40992;BME280;29633;49.168;9.848;2023-08-01T09:16:08;95551.47;;;20.71;73.24
40992;BME280;29633;49.168;9.848;2023-08-01T09:18:45;95553.28;;;20.71;73.06
40992;BME280;29633;49.168;9.848;2023-08-01T09:21:11;95558.34;;;20.72;73.08
40992;BME280;29633;49.168;9.848;2023-08-01T09:23:37;95565.19;;;20.73;73.12
40992;BME280;29633;49.168;9.848;2023-08-01T09:26:14;95556.34;;;20.68;73.31
40992;BME280;29633;49.168;9.848;2023-08-01T09:28:40;95560.59;;;20.69;73.36
40992;BME280;29633;49.168;9.848;2023-08-01T09:31:06;95566.69;;;20.69;73.34
40992;BME280;29633;49.168;9.848;2023-08-01T09:33:41;95571.34;;;20.67;73.51
40992;BME280;29633;49.168;9.848;2023-08-01T09:36:08;95579.25;;;20.67;73.56
40992;BME280;29633;49.168;9.848;2023-08-01T09:38:35;95570.31;;;20.68;73.24
40992;BME280;29633;49.168;9.848;2023-08-01T09:41:01;95581.44;;;20.70;73.49
40992;BME280;29633;49.168;9.848;2023-08-01T09:43:34;95588.53;;;20.70;73.59
40992;BME280;29633;49.168;9.848;2023-08-01T09:46:01;95591.16;;;20.70;73.69
40992;BME280;29633;49.168;9.848;2023-08-01T09:48:28;95584.44;;;20.74;73.48
40992;BME280;29633;49.168;9.848;2023-08-01T09:53:32;95566.75;;;20.81;73.63
40992;BME280;29633;49.168;9.848;2023-08-01T09:56:01;95574.84;;;20.86;73.48
40992;BME280;29633;49.168;9.848;2023-08-01T09:58:34;95566.06;;;20.92;73.74
40992;BME280;29633;49.168;9.848;2023-08-01T10:01:00;95559.94;;;20.98;73.48
40992;BME280;29633;49.168;9.848;2023-08-01T10:03:29;95565.97;;;21.05;73.60
40992;BME280;29633;49.168;9.848;2023-08-01T10:05:56;95566.09;;;21.10;73.55
40992;BME280;29633;49.168;9.848;2023-08-01T10:08:22;95561.00;;;21.15;73.39
40992;BME280;29633;49.168;9.848;2023-08-01T10:10:48;95562.31;;;21.24;73.53
40992;BME280;29633;49.168;9.848;2023-08-01T10:13:14;95570.41;;;21.29;73.61
40992;BME280;29633;49.168;9.848;2023-08-01T10:15:40;95571.56;;;21.33;73.58
40992;BME280;29633;49.168;9.848;2023-08-01T10:18:06;95583.06;;;21.39;73.57
40992;BME280;29633;49.168;9.848;2023-08-01T10:20:32;95579.56;;;21.45;73.51
40992;BME280;29633;49.168;9.848;2023-08-01T10:22:59;95581.53;;;21.49;73.51
40992;BME280;29633;49.168;9.848;2023-08-01T10:25:25;95579.84;;;21.55;73.77
40992;BME280;29633;49.168;9.848;2023-08-01T10:28:03;95568.06;;;21.57;73.79
40992;BME280;29633;49.168;9.848;2023-08-01T10:30:29;95577.13;;;21.62;73.59
40992;BME280;29633;49.168;9.848;2023-08-01T10:32:56;95584.59;;;21.65;73.68
40992;BME280;29633;49.168;9.848;2023-08-01T10:35:39;95592.69;;;21.70;73.74
40992;BME280;29633;49.168;9.848;2023-08-01T10:38:11;95579.59;;;21.75;73.77
40992;BME280;29633;49.168;9.848;2023-08-01T10:40:40;95599.25;;;21.79;73.77
40992;BME280;29633;49.168;9.848;2023-08-01T10:43:05;95594.94;;;21.84;73.70
40992;BME280;29633;49.168;9.848;2023-08-01T10:45:31;95585.31;;;21.90;73.72
40992;BME280;29633;49.168;9.848;2023-08-01T10:48:07;95591.44;;;21.90;73.56
40992;BME280;29633;49.168;9.848;2023-08-01T10:50:33;95594.44;;;21.94;74.00
40992;BME280;29633;49.168;9.848;2023-08-01T10:53:07;95590.09;;;21.99;73.39
40992;BME280;29633;49.168;9.848;2023-08-01T10:55:45;95598.38;;;22.03;73.71
40992;BME280;29633;49.168;9.848;2023-08-01T10:58:12;95596.03;;;22.13;73.69
40992;BME280;29633;49.168;9.848;2023-08-01T11:00:38;95593.03;;;22.21;73.38
40992;BME280;29633;49.168;9.848;2023-08-01T11:03:04;95605.81;;;22.24;73.49
40992;BME280;29633;49.168;9.848;2023-08-01T11:05:29;95603.75;;;22.26;73.75
40992;BME280;29633;49.168;9.848;2023-08-01T11:08:00;95592.97;;;22.28;73.52
40992;BME280;29633;49.168;9.848;2023-08-01T11:10:27;95601.47;;;22.30;73.46
40992;BME280;29633;49.168;9.848;2023-08-01T11:12:54;95593.59;;;22.41;73.46
40992;BME280;29633;49.168;9.848;2023-08-01T11:15:20;95587.06;;;22.55;73.33
40992;BME280;29633;49.168;9.848;2023-08-01T11:17:51;95603.00;;;22.67;73.46
40992;BME280;29633;49.168;9.848;2023-08-01T11:20:18;95586.00;;;22.75;73.75
40992;BME280;29633;49.168;9.848;2023-08-01T11:22:57;95579.81;;;22.81;73.47
40992;BME280;29633;49.168;9.848;2023-08-01T11:25:37;95576.47;;;22.85;73.53
40992;BME280;29633;49.168;9.848;2023-08-01T11:28:08;95581.66;;;22.92;73.59
40992;BME280;29633;49.168;9.848;2023-08-01T11:30:34;95579.25;;;23.02;73.28
40992;BME280;29633;49.168;9.848;2023-08-01T11:33:01;95567.41;;;23.04;73.44
40992;BME280;29633;49.168;9.848;2023-08-01T11:35:28;95571.53;;;23.12;73.29
40992;BME280;29633;49.168;9.848;2023-08-01T11:37:54;95575.13;;;23.18;73.35
40992;BME280;29633;49.168;9.848;2023-08-01T11:40:20;95573.63;;;23.22;73.21
40992;BME280;29633;49.168;9.848;2023-08-01T11:42:49;95571.41;;;23.30;73.34
40992;BME280;29633;49.168;9.848;2023-08-01T11:45:18;95569.44;;;23.37;73.01
40992;BME280;29633;49.168;9.848;2023-08-01T11:47:47;95574.88;;;23.42;72.95
40992;BME280;29633;49.168;9.848;2023-08-01T11:50:14;95564.50;;;23.41;72.93
40992;BME280;29633;49.168;9.848;2023-08-01T11:52:39;95557.63;;;23.40;72.75
40992;BME280;29633;49.168;9.848;2023-08-01T11:55:05;95554.38;;;23.38;72.98
40992;BME280;29633;49.168;9.848;2023-08-01T11:57:31;95575.44;;;23.44;72.82
40992;BME280;29633;49.168;9.848;2023-08-01T11:59:57;95561.66;;;23.42;72.56
40992;BME280;29633;49.168;9.848;2023-08-01T12:02:24;95575.44;;;23.44;72.69
40992;BME280;29633;49.168;9.848;2023-08-01T12:04:50;95586.50;;;23.41;72.52
40992;BME280;29633;49.168;9.848;2023-08-01T12:07:16;95613.03;;;23.35;72.48
40992;BME280;29633;49.168;9.848;2023-08-01T12:09:43;95637.16;;;23.15;72.83
40992;BME280;29633;49.168;9.848;2023-08-01T12:12:08;95617.50;;;22.88;72.78
40992;BME280;29633;49.168;9.848;2023-08-01T12:14:40;95618.59;;;22.69;73.25
40992;BME280;29633;49.168;9.848;2023-08-01T12:17:05;95619.94;;;22.60;73.18
40992;BME280;29633;49.168;9.848;2023-08-01T12:19:31;95627.16;;;22.52;73.38
40992;BME280;29633;49.168;9.848;2023-08-01T12:21:59;95632.97;;;22.43;73.32
40992;BME280;29633;49.168;9.848;2023-08-01T12:24:25;95627.31;;;22.39;73.37
40992;BME280;29633;49.168;9.848;2023-08-01T12:26:50;95620.66;;;22.37;73.10
40992;BME280;29633;49.168;9.848;2023-08-01T12:29:16;95621.47;;;22.37;73.32
40992;BME280;29633;49.168;9.848;2023-08-01T12:31:42;95627.00;;;22.47;72.99
40992;BME280;29633;49.168;9.848;2023-08-01T12:34:07;95630.16;;;22.56;73.19
40992;BME280;29633;49.168;9.848;2023-08-01T12:36:33;95632.88;;;22.68;72.98
40992;BME280;29633;49.168;9.848;2023-08-01T12:38:59;95631.63;;;22.82;73.11
40992;BME280;29633;49.168;9.848;2023-08-01T12:41:25;95624.75;;;22.92;72.70
40992;BME280;29633;49.168;9.848;2023-08-01T12:43:50;95628.66;;;23.01;72.49
40992;BME280;29633;49.168;9.848;2023-08-01T12:46:16;95626.03;;;23.13;72.89
40992;BME280;29633;49.168;9.848;2023-08-01T12:48:43;95627.66;;;23.26;72.84
40992;BME280;29633;49.168;9.848;2023-08-01T12:51:09;95629.94;;;23.34;73.14
40992;BME280;29633;49.168;9.848;2023-08-01T12:53:34;95632.38;;;23.35;72.78
40992;BME280;29633;49.168;9.848;2023-08-01T12:56:00;95623.53;;;23.41;72.95
40992;BME280;29633;49.168;9.848;2023-08-01T12:58:26;95625.50;;;23.46;72.99
40992;BME280;29633;49.168;9.848;2023-08-01T13:00:52;95625.03;;;23.49;72.68